sensor_id;sensor_type;location;lat;lon;timestamp;temperature;humidity
35244;DHT22;37916;52.160;21.066;2022-11-21T00:22:53;-2.30;87.60
35244;DHT22;37916;52.160;21.066;2022-11-21T00:33:27;-2.00;86.70
35244;DHT22;37916;52.160;21.066;2022-11-21T00:44:00;-1.90;86.00
35244;DHT22;37916;52.160;21.066;2022-11-21T01:27:51;-1.90;84.90
35244;DHT22;37916;52.160;21.066;2022-11-21T01:38:25;-2.00;85.30
35244;DHT22;37916;52.160;21.066;2022-11-21T03:17:36;-3.80;87.50
35244;DHT22;37916;52.160;21.066;2022-11-21T03:28:36;-3.90;87.10
35244;DHT22;37916;52.160;21.066;2022-11-21T03:50:09;-4.20;87.40
35244;DHT22;37916;52.160;21.066;2022-11-21T04:00:51;-4.30;87.60
35244;DHT22;37916;52.160;21.066;2022-11-21T04:11:16;-4.50;87.70
35244;DHT22;37916;52.160;21.066;2022-11-21T04:44:11;-4.60;88.10
35244;DHT22;37916;52.160;21.066;2022-11-21T05:06:07;-4.70;87.70
35244;DHT22;37916;52.160;21.066;2022-11-21T05:16:34;-4.80;87.20
35244;DHT22;37916;52.160;21.066;2022-11-21T05:26:43;-4.70;88.50
35244;DHT22;37916;52.160;21.066;2022-11-21T05:36:43;-4.80;87.90
35244;DHT22;37916;52.160;21.066;2022-11-21T05:46:44;-4.90;87.20
35244;DHT22;37916;52.160;21.066;2022-11-21T05:56:45;-4.90;88.10
35244;DHT22;37916;52.160;21.066;2022-11-21T06:06:45;-4.90;88.10
35244;DHT22;37916;52.160;21.066;2022-11-21T06:16:46;-4.80;88.10
35244;DHT22;37916;52.160;21.066;2022-11-21T06:26:50;-4.80;88.00
35244;DHT22;37916;52.160;21.066;2022-11-21T06:36:51;-4.60;88.20
35244;DHT22;37916;52.160;21.066;2022-11-21T11:02:29;0.80;80.60
35244;DHT22;37916;52.160;21.066;2022-11-21T11:24:46;1.40;79.10
35244;DHT22;37916;52.160;21.066;2022-11-21T11:56:46;2.30;76.50
35244;DHT22;37916;52.160;21.066;2022-11-21T13:23:48;2.30;78.90
35244;DHT22;37916;52.160;21.066;2022-11-21T13:34:08;2.40;79.20
35244;DHT22;37916;52.160;21.066;2022-11-21T14:16:33;2.30;79.10
35244;DHT22;37916;52.160;21.066;2022-11-21T14:26:39;2.30;79.50
35244;DHT22;37916;52.160;21.066;2022-11-21T14:36:42;2.30;79.50
35244;DHT22;37916;52.160;21.066;2022-11-21T14:46:50;2.00;79.70
35244;DHT22;37916;52.160;21.066;2022-11-21T14:57:01;1.70;80.70
35244;DHT22;37916;52.160;21.066;2022-11-21T15:07:03;1.70;81.30
35244;DHT22;37916;52.160;21.066;2022-11-21T15:17:16;1.60;81.80
35244;DHT22;37916;52.160;21.066;2022-11-21T15:37:32;1.50;82.40
35244;DHT22;37916;52.160;21.066;2022-11-21T15:47:33;1.50;82.70
35244;DHT22;37916;52.160;21.066;2022-11-21T15:57:34;1.30;83.30
35244;DHT22;37916;52.160;21.066;2022-11-21T16:07:34;1.30;83.80
35244;DHT22;37916;52.160;21.066;2022-11-21T16:17:38;1.30;84.00
35244;DHT22;37916;52.160;21.066;2022-11-21T16:27:41;1.20;84.40
35244;DHT22;37916;52.160;21.066;2022-11-21T16:37:54;1.20;84.60
35244;DHT22;37916;52.160;21.066;2022-11-21T16:58:27;1.20;84.60
35244;DHT22;37916;52.160;21.066;2022-11-21T17:08:28;1.30;84.70
35244;DHT22;37916;52.160;21.066;2022-11-21T17:18:32;1.30;84.70
35244;DHT22;37916;52.160;21.066;2022-11-21T17:28:33;1.30;84.80
35244;DHT22;37916;52.160;21.066;2022-11-21T17:38:33;1.40;84.70
35244;DHT22;37916;52.160;21.066;2022-11-21T17:48:36;1.50;84.50
35244;DHT22;37916;52.160;21.066;2022-11-21T17:58:37;1.60;84.30
35244;DHT22;37916;52.160;21.066;2022-11-21T18:08:40;1.60;84.50
35244;DHT22;37916;52.160;21.066;2022-11-21T18:18:41;1.60;84.70
35244;DHT22;37916;52.160;21.066;2022-11-21T18:28:45;1.60;84.70
35244;DHT22;37916;52.160;21.066;2022-11-21T18:38:46;1.60;85.20
35244;DHT22;37916;52.160;21.066;2022-11-21T18:48:47;1.80;84.50
35244;DHT22;37916;52.160;21.066;2022-11-21T18:58:50;2.00;84.20
35244;DHT22;37916;52.160;21.066;2022-11-21T19:08:52;2.00;84.40
35244;DHT22;37916;52.160;21.066;2022-11-21T19:18:59;2.00;84.60
35244;DHT22;37916;52.160;21.066;2022-11-21T19:29:00;2.10;84.30
35244;DHT22;37916;52.160;21.066;2022-11-21T20:00:24;2.30;84.40
35244;DHT22;37916;52.160;21.066;2022-11-21T20:10:25;2.20;84.80
35244;DHT22;37916;52.160;21.066;2022-11-21T20:20:47;2.20;85.10
35244;DHT22;37916;52.160;21.066;2022-11-21T20:30:48;2.20;85.10
35244;DHT22;37916;52.160;21.066;2022-11-21T20:50:59;2.30;84.90
35244;DHT22;37916;52.160;21.066;2022-11-21T21:01:04;2.00;85.90
35244;DHT22;37916;52.160;21.066;2022-11-21T21:11:17;2.00;86.30
35244;DHT22;37916;52.160;21.066;2022-11-21T21:21:20;2.10;86.10
35244;DHT22;37916;52.160;21.066;2022-11-21T21:31:21;2.10;85.60
35244;DHT22;37916;52.160;21.066;2022-11-21T21:41:24;2.20;85.60
35244;DHT22;37916;52.160;21.066;2022-11-21T21:51:28;2.20;85.10
35244;DHT22;37916;52.160;21.066;2022-11-21T22:01:29;2.10;85.20
35244;DHT22;37916;52.160;21.066;2022-11-21T22:11:34;2.20;85.10
35244;DHT22;37916;52.160;21.066;2022-11-21T22:21:36;2.30;84.80
35244;DHT22;37916;52.160;21.066;2022-11-21T22:31:37;2.10;85.40
35244;DHT22;37916;52.160;21.066;2022-11-21T22:41:38;2.10;85.50
35244;DHT22;37916;52.160;21.066;2022-11-21T22:51:38;2.20;85.10
35244;DHT22;37916;52.160;21.066;2022-11-21T23:01:39;2.20;85.30
35244;DHT22;37916;52.160;21.066;2022-11-21T23:11:40;2.20;85.50
35244;DHT22;37916;52.160;21.066;2022-11-21T23:21:40;2.20;85.30
35244;DHT22;37916;52.160;21.066;2022-11-21T23:31:41;2.20;85.30
35244;DHT22;37916;52.160;21.066;2022-11-21T23:41:42;2.20;85.10
35244;DHT22;37916;52.160;21.066;2022-11-21T23:51:42;2.30;85.00
